N9JG EGKK-EHAM
Flight info
| Callsign | N9JG |
|---|---|
| Flight time | N/A |
| Altitude | 23000 |
| Route | FRANE M604 GASBA M197 REDFA |
| Aircraft | E55P/M-SDGRWY/L |
Departure
| Time | 2026-05-07 17:57 |
|---|---|
| Airport | London Gatwick Airport (EGKK) |
Arrival
| Time | N/A |
|---|---|
| Airport | Amsterdam Airport Schiphol (EHAM) |
| Time | Latitude | Longitude | Altitude | Speed | Heading |
|---|---|---|---|---|---|
| 2026-05-07 17:37 | 51.15129 | -0.19429 | 188 ft | 0 kts | 78° |
| 2026-05-07 17:48 | 51.15133 | -0.19420 | 188 ft | 3 kts | 31° |
| 2026-05-07 17:48 | 51.15134 | -0.19455 | 188 ft | 1 kts | 219° |
| 2026-05-07 17:48 | 51.15127 | -0.19465 | 188 ft | 1 kts | 211° |
| 2026-05-07 17:48 | 51.15123 | -0.19466 | 188 ft | 0 kts | 185° |
| 2026-05-07 17:49 | 51.15115 | -0.19467 | 188 ft | 1 kts | 186° |
| 2026-05-07 17:49 | 51.15105 | -0.19470 | 188 ft | 0 kts | 188° |
| 2026-05-07 17:50 | 51.15087 | -0.19513 | 188 ft | 8 kts | 245° |
| 2026-05-07 17:50 | 51.15059 | -0.19557 | 188 ft | 1 kts | 198° |
| 2026-05-07 17:51 | 51.15019 | -0.19583 | 188 ft | 11 kts | 222° |
| 2026-05-07 17:51 | 51.14997 | -0.19705 | 188 ft | 11 kts | 262° |
| 2026-05-07 17:51 | 51.14976 | -0.19852 | 191 ft | 14 kts | 256° |
| 2026-05-07 17:51 | 51.14952 | -0.20019 | 191 ft | 16 kts | 260° |
| 2026-05-07 17:52 | 51.14936 | -0.20130 | 191 ft | 12 kts | 258° |
| 2026-05-07 17:52 | 51.14914 | -0.20296 | 193 ft | 18 kts | 257° |
| 2026-05-07 17:52 | 51.14881 | -0.20527 | 191 ft | 24 kts | 259° |
| 2026-05-07 17:52 | 51.14852 | -0.20728 | 191 ft | 8 kts | 258° |
| 2026-05-07 17:53 | 51.14852 | -0.20733 | 191 ft | 0 kts | 258° |
| 2026-05-07 17:53 | 51.14843 | -0.20800 | 191 ft | 12 kts | 259° |
| 2026-05-07 17:53 | 51.14817 | -0.20991 | 194 ft | 20 kts | 255° |
| 2026-05-07 17:54 | 51.14787 | -0.21162 | 194 ft | 10 kts | 245° |
| 2026-05-07 17:54 | 51.14764 | -0.21322 | 195 ft | 12 kts | 256° |
| 2026-05-07 17:54 | 51.14718 | -0.21405 | 198 ft | 13 kts | 188° |
| 2026-05-07 17:54 | 51.14629 | -0.21342 | 198 ft | 14 kts | 156° |
| 2026-05-07 17:55 | 51.14534 | -0.21260 | 196 ft | 18 kts | 124° |
| 2026-05-07 17:55 | 51.14518 | -0.21191 | 195 ft | 0 kts | 91° |
| 2026-05-07 17:56 | 51.14518 | -0.21183 | 195 ft | 11 kts | 89° |
| 2026-05-07 17:56 | 51.14587 | -0.20583 | 191 ft | 96 kts | 77° |
| 2026-05-07 17:56 | 51.14787 | -0.19320 | 561 ft | 124 kts | 73° |
| 2026-05-07 17:57 | 51.15055 | -0.17708 | 907 ft | 169 kts | 79° |
| 2026-05-07 17:57 | 51.15236 | -0.16418 | 1252 ft | 192 kts | 79° |
| 2026-05-07 17:57 | 51.15654 | -0.13291 | 1922 ft | 241 kts | 79° |
| 2026-05-07 17:57 | 51.16024 | -0.10481 | 2405 ft | 275 kts | 79° |
| 2026-05-07 17:58 | 51.16419 | -0.07517 | 2845 ft | 268 kts | 79° |
| 2026-05-07 17:58 | 51.16787 | -0.04718 | 3245 ft | 248 kts | 79° |
| 2026-05-07 17:58 | 51.16884 | -0.02103 | 3638 ft | 232 kts | 94° |
| 2026-05-07 17:58 | 51.16829 | 0.00424 | 4046 ft | 221 kts | 92° |
| 2026-05-07 17:59 | 51.16784 | 0.02836 | 4464 ft | 234 kts | 92° |
| 2026-05-07 17:59 | 51.16736 | 0.05550 | 4930 ft | 258 kts | 92° |
| 2026-05-07 17:59 | 51.16682 | 0.08466 | 5017 ft | 264 kts | 92° |
| 2026-05-07 17:59 | 51.16626 | 0.11381 | 5016 ft | 260 kts | 92° |
| 2026-05-07 18:00 | 51.16573 | 0.14252 | 5019 ft | 260 kts | 92° |
| 2026-05-07 18:00 | 51.16554 | 0.17125 | 5019 ft | 263 kts | 90° |